Terminal Aerodrome Forecast
Issued by NWS Missoula, MT

Home | Current Version | Previous Version | Text Only | Print | Product List | Glossary On
Versions: 1 2 3 4 5 6 7 8 9 10 11 12 13
000
FTUS45 KMSO 182300
TAFBTM
TAF
KBTM 182325Z 1900/1924 28020G30KT P6SM SCT070
     FM190300 28012KT P6SM SKC
     FM190500 VRB05KT P6SM SKC
     FM191900 20010G20KT P6SM SCT090=

USA.gov is the U.S. government's official web portal to all federal, state and local government web resources and services.